createdAt,value
2018-07-12T00:02:09.057Z,16.90
2018-07-12T00:04:36.346Z,16.90
2018-07-12T00:07:03.648Z,16.90
2018-07-12T00:09:30.927Z,16.90
2018-07-12T00:11:58.214Z,16.80
2018-07-12T00:14:25.500Z,16.90
2018-07-12T00:16:52.809Z,17.00
2018-07-12T00:19:20.069Z,17.10
2018-07-12T00:21:47.333Z,16.90
2018-07-12T00:24:14.630Z,16.90
2018-07-12T00:26:41.901Z,17.10
2018-07-12T00:29:09.198Z,17.20
2018-07-12T00:31:36.474Z,17.00
2018-07-12T00:34:03.798Z,16.90
2018-07-12T00:36:31.097Z,16.90
2018-07-12T00:38:58.384Z,16.90
2018-07-12T00:41:25.668Z,17.00
2018-07-12T00:43:52.947Z,16.90
2018-07-12T00:46:20.240Z,16.80
2018-07-12T00:48:47.523Z,16.70
2018-07-12T00:51:14.822Z,16.80
2018-07-12T00:53:42.089Z,16.90
2018-07-12T00:56:09.356Z,16.90
2018-07-12T00:58:36.657Z,16.90
2018-07-12T01:01:03.955Z,16.80
2018-07-12T01:03:31.256Z,16.90
2018-07-12T01:05:58.525Z,16.80
2018-07-12T01:08:25.803Z,16.70
2018-07-12T01:10:53.108Z,16.50
2018-07-12T01:13:20.384Z,16.50
2018-07-12T01:15:47.688Z,16.60
2018-07-12T01:18:14.962Z,16.70
2018-07-12T01:20:42.244Z,16.80
2018-07-12T01:23:09.542Z,16.60
2018-07-12T01:25:36.856Z,16.70
2018-07-12T01:28:04.311Z,16.60
2018-07-12T01:30:31.580Z,16.50
2018-07-12T01:32:58.856Z,16.60
2018-07-12T01:35:26.149Z,16.80
2018-07-12T01:37:53.444Z,16.80
2018-07-12T01:40:20.792Z,16.70
2018-07-12T01:42:48.081Z,16.60
2018-07-12T01:45:15.349Z,16.60
2018-07-12T01:47:42.622Z,16.60
2018-07-12T01:50:09.925Z,16.70
2018-07-12T01:52:37.206Z,16.70
2018-07-12T01:55:04.509Z,16.70
2018-07-12T01:57:31.798Z,16.80
2018-07-12T01:59:59.087Z,16.80
2018-07-12T02:02:26.394Z,16.80
2018-07-12T02:04:53.709Z,16.90
2018-07-12T02:07:20.993Z,16.90
2018-07-12T02:09:48.281Z,16.80
2018-07-12T02:12:15.585Z,17.00
2018-07-12T02:14:42.871Z,16.90
2018-07-12T02:17:10.239Z,16.80
2018-07-12T02:19:37.551Z,16.80
2018-07-12T02:22:04.866Z,16.80
2018-07-12T02:24:32.163Z,16.90
2018-07-12T02:26:59.478Z,16.80
2018-07-12T02:29:26.763Z,16.70
2018-07-12T02:31:54.055Z,16.70
2018-07-12T02:34:21.652Z,16.70
2018-07-12T02:36:48.971Z,16.70
2018-07-12T02:39:16.262Z,16.70
2018-07-12T02:41:43.584Z,16.80
2018-07-12T02:44:10.891Z,16.80
2018-07-12T02:46:38.186Z,16.70
2018-07-12T02:49:05.492Z,16.70
2018-07-12T02:51:32.791Z,16.80
2018-07-12T02:54:00.258Z,16.90
2018-07-12T02:56:27.547Z,16.80
2018-07-12T02:58:54.842Z,16.70
2018-07-12T03:01:22.146Z,16.70
2018-07-12T03:03:49.434Z,16.80
2018-07-12T03:06:16.742Z,16.80
2018-07-12T03:08:44.043Z,16.70
2018-07-12T03:11:11.349Z,16.70
2018-07-12T03:13:38.759Z,16.70
2018-07-12T03:16:06.146Z,16.70
2018-07-12T03:18:33.467Z,16.70
2018-07-12T03:21:00.753Z,16.60
2018-07-12T03:23:28.079Z,16.60
2018-07-12T03:25:55.398Z,16.60
2018-07-12T03:28:22.675Z,16.60
2018-07-12T03:30:50.071Z,16.70
2018-07-12T03:33:17.365Z,16.60
2018-07-12T03:35:44.654Z,16.50
2018-07-12T03:38:11.963Z,16.60
2018-07-12T03:40:39.283Z,16.50
2018-07-12T03:43:06.572Z,16.50
2018-07-12T03:45:33.922Z,16.60
2018-07-12T03:48:01.236Z,16.60
2018-07-12T03:50:28.527Z,16.60
2018-07-12T03:52:55.835Z,16.60
2018-07-12T03:55:23.122Z,16.70
2018-07-12T03:57:50.437Z,16.70
2018-07-12T04:00:17.727Z,16.80
2018-07-12T04:02:45.023Z,16.80
2018-07-12T04:05:12.340Z,16.80
2018-07-12T04:07:39.651Z,16.70
2018-07-12T04:10:06.971Z,16.70
2018-07-12T04:12:34.262Z,16.70
2018-07-12T04:15:01.580Z,16.70
2018-07-12T04:17:30.341Z,16.70
2018-07-12T04:19:58.846Z,16.70
2018-07-12T04:22:27.124Z,16.80
2018-07-12T04:24:54.426Z,16.80
2018-07-12T04:27:22.327Z,16.80
2018-07-12T04:29:50.862Z,16.80
2018-07-12T04:32:18.286Z,16.90
2018-07-12T04:34:46.239Z,16.90
2018-07-12T04:37:13.528Z,17.00
2018-07-12T04:39:40.850Z,16.80
2018-07-12T04:42:08.138Z,16.80
2018-07-12T04:44:35.434Z,16.80
2018-07-12T04:47:02.754Z,16.90
2018-07-12T04:49:30.044Z,16.90
2018-07-12T04:51:58.178Z,16.90
2018-07-12T04:54:25.779Z,16.90
2018-07-12T04:56:53.067Z,17.00
2018-07-12T04:59:21.015Z,17.00
2018-07-12T05:01:48.798Z,17.10
2018-07-12T05:04:16.110Z,17.10
2018-07-12T05:06:43.569Z,17.10
2018-07-12T05:09:11.702Z,17.20
2018-07-12T05:11:38.986Z,17.30
2018-07-12T05:14:06.458Z,17.40
2018-07-12T05:16:33.754Z,17.40
2018-07-12T05:19:01.041Z,17.40
2018-07-12T05:21:28.353Z,17.60
2018-07-12T05:23:55.659Z,17.70
2018-07-12T05:26:22.942Z,17.80
2018-07-12T05:28:50.302Z,18.00
2018-07-12T05:31:17.587Z,18.00
2018-07-12T05:33:44.904Z,18.10
2018-07-12T05:36:54.597Z,18.10
2018-07-12T05:39:23.100Z,18.10
2018-07-12T05:41:52.011Z,18.20
2018-07-12T05:44:20.398Z,18.20
2018-07-12T05:46:49.222Z,18.20
2018-07-12T05:49:17.767Z,18.20
2018-07-12T05:51:46.816Z,18.30
2018-07-12T05:54:16.096Z,18.40
2018-07-12T05:56:44.619Z,18.40
2018-07-12T05:59:13.191Z,18.40
2018-07-12T06:01:52.890Z,18.50
2018-07-12T06:04:21.310Z,18.50
2018-07-12T06:06:49.692Z,18.60
2018-07-12T06:09:18.094Z,18.60
2018-07-12T06:11:46.502Z,18.60
2018-07-12T06:14:14.941Z,18.60
2018-07-12T06:16:43.567Z,18.70
2018-07-12T06:19:11.972Z,18.70
2018-07-12T06:21:40.373Z,18.70
2018-07-12T06:24:08.798Z,18.70
2018-07-12T06:26:37.203Z,18.70
2018-07-12T06:29:05.650Z,18.60
2018-07-12T06:31:34.061Z,18.60
2018-07-12T06:34:02.667Z,18.60
2018-07-12T06:36:31.070Z,18.70
2018-07-12T06:38:59.470Z,18.70
2018-07-12T06:41:28.106Z,18.70
2018-07-12T06:43:56.487Z,18.70
2018-07-12T06:46:25.136Z,18.70
2018-07-12T06:48:53.587Z,18.80
2018-07-12T06:51:22.012Z,18.80
2018-07-12T06:53:50.411Z,18.80
2018-07-12T06:56:18.819Z,18.80
2018-07-12T06:58:47.236Z,18.90
2018-07-12T07:01:15.659Z,18.90
2018-07-12T07:03:44.059Z,18.90
2018-07-12T07:06:12.487Z,18.90
2018-07-12T07:08:40.916Z,18.90
2018-07-12T07:11:09.415Z,19.10
2018-07-12T07:13:38.004Z,19.10
2018-07-12T07:16:06.838Z,19.10
2018-07-12T07:18:35.272Z,19.10
2018-07-12T07:21:03.754Z,19.20
2018-07-12T07:23:32.184Z,19.20
2018-07-12T07:26:00.608Z,19.30
2018-07-12T07:28:29.012Z,19.30
2018-07-12T07:30:57.420Z,19.30
2018-07-12T07:33:25.858Z,19.30
2018-07-12T07:35:54.271Z,19.30
2018-07-12T07:38:22.690Z,19.40
2018-07-12T07:40:51.294Z,19.50
2018-07-12T07:43:19.799Z,19.50
2018-07-12T07:45:48.147Z,19.60
2018-07-12T07:48:16.714Z,19.60
2018-07-12T07:53:13.197Z,19.80
2018-07-12T07:55:41.607Z,19.80
2018-07-12T07:58:10.059Z,19.90
2018-07-12T08:00:38.603Z,20.30
2018-07-12T08:03:06.997Z,20.60
2018-07-12T08:05:35.410Z,20.60
2018-07-12T08:08:03.902Z,20.40
2018-07-12T08:10:32.307Z,20.30
2018-07-12T08:13:00.699Z,20.20
2018-07-12T08:15:29.183Z,20.30
2018-07-12T08:17:57.590Z,20.40
2018-07-12T08:20:26.028Z,20.60
2018-07-12T08:22:54.603Z,21.20
2018-07-12T08:25:23.026Z,21.30
2018-07-12T08:28:02.600Z,21.40
2018-07-12T08:30:31.018Z,21.50
2018-07-12T08:32:59.455Z,21.70
2018-07-12T08:35:27.926Z,22.10
2018-07-12T08:37:56.351Z,22.10
2018-07-12T08:40:24.835Z,22.30
2018-07-12T08:45:21.356Z,22.20
2018-07-12T08:47:49.754Z,22.10
2018-07-12T08:50:18.162Z,22.00
2018-07-12T08:55:14.802Z,21.90
2018-07-12T08:57:43.187Z,22.00
2018-07-12T09:00:11.708Z,22.20
2018-07-12T09:02:40.166Z,22.50
2018-07-12T09:05:08.538Z,22.60
2018-07-12T09:07:37.119Z,22.50
2018-07-12T09:10:05.581Z,22.30
2018-07-12T09:12:34.023Z,22.20
2018-07-12T09:15:02.644Z,22.10
2018-07-12T09:17:31.082Z,22.10
2018-07-12T09:19:59.498Z,22.10
2018-07-12T09:22:28.020Z,22.00
2018-07-12T09:24:56.412Z,22.00
2018-07-12T09:27:24.815Z,21.90
2018-07-12T09:29:53.254Z,21.80
2018-07-12T09:32:21.643Z,21.70
2018-07-12T09:34:50.082Z,21.60
2018-07-12T09:37:18.483Z,21.60
2018-07-12T09:39:46.927Z,21.70
2018-07-12T09:42:15.285Z,21.70
2018-07-12T09:44:43.708Z,21.70
2018-07-12T09:47:12.135Z,21.70
2018-07-12T09:49:40.610Z,21.70
2018-07-12T09:52:14.362Z,21.70
2018-07-12T09:54:42.923Z,21.70
2018-07-12T09:58:22.279Z,21.60
2018-07-12T10:00:55.978Z,21.60
2018-07-12T10:03:27.738Z,21.50
2018-07-12T10:05:57.543Z,21.60
2018-07-12T10:08:31.303Z,21.90
2018-07-12T10:11:04.998Z,22.20
2018-07-12T10:13:38.675Z,22.40
2018-07-12T10:16:12.326Z,22.60
2018-07-12T10:18:40.741Z,22.60
2018-07-12T10:21:09.155Z,22.70
2018-07-12T10:23:37.585Z,22.70
2018-07-12T10:26:06.116Z,22.90
2018-07-12T10:28:34.507Z,23.20
2018-07-12T10:31:02.909Z,23.70
2018-07-12T10:33:31.294Z,24.20
2018-07-12T10:35:59.719Z,24.50
2018-07-12T10:38:28.119Z,24.30
2018-07-12T10:40:56.503Z,24.20
2018-07-12T10:43:24.923Z,24.00
2018-07-12T10:45:53.356Z,23.90
2018-07-12T10:48:21.767Z,23.60
2018-07-12T10:50:50.182Z,23.40
2018-07-12T10:53:18.606Z,23.20
2018-07-12T10:55:47.015Z,23.00
2018-07-12T10:58:15.419Z,22.90
2018-07-12T11:00:43.883Z,22.80
2018-07-12T11:03:12.266Z,22.70
2018-07-12T11:05:40.691Z,22.70
2018-07-12T11:08:09.110Z,22.80
2018-07-12T11:10:37.533Z,22.80
2018-07-12T11:13:20.293Z,22.80
2018-07-12T11:15:48.766Z,22.80
2018-07-12T11:18:17.150Z,22.80
2018-07-12T11:20:45.568Z,22.90
2018-07-12T11:23:13.951Z,23.00
2018-07-12T11:25:42.375Z,23.10
2018-07-12T11:28:10.798Z,23.10
2018-07-12T11:30:39.203Z,23.10
2018-07-12T11:33:49.386Z,23.10
2018-07-12T11:36:18.080Z,23.00
2018-07-12T11:38:46.850Z,22.90
2018-07-12T11:41:15.571Z,22.80
2018-07-12T11:43:44.035Z,22.80
2018-07-12T11:46:13.765Z,22.90
2018-07-12T11:48:43.002Z,22.90
2018-07-12T11:51:11.495Z,22.90
2018-07-12T11:53:39.928Z,22.90
2018-07-12T11:56:08.538Z,22.90
2018-07-12T11:58:36.944Z,22.80
2018-07-12T12:01:05.407Z,22.70
2018-07-12T12:03:34.039Z,22.70
2018-07-12T12:06:02.465Z,22.70
2018-07-12T12:08:30.879Z,22.60
2018-07-12T12:10:59.287Z,22.60
2018-07-12T12:13:27.693Z,22.70
2018-07-12T12:15:56.098Z,22.80
2018-07-12T12:18:24.519Z,22.80
2018-07-12T12:20:52.914Z,22.80
2018-07-12T12:23:21.298Z,22.70
2018-07-12T12:25:49.869Z,22.80
2018-07-12T12:28:18.284Z,22.80
2018-07-12T12:30:46.700Z,22.80
2018-07-12T12:33:15.112Z,22.80
2018-07-12T12:35:43.499Z,22.80
2018-07-12T12:38:11.910Z,22.90
2018-07-12T12:40:40.318Z,23.00
2018-07-12T12:43:08.728Z,23.00
2018-07-12T12:45:37.143Z,23.00
2018-07-12T12:48:05.627Z,22.90
2018-07-12T12:50:34.049Z,22.90
2018-07-12T12:53:02.451Z,22.80
2018-07-12T12:55:30.904Z,22.80
2018-07-12T12:57:59.315Z,22.80
2018-07-12T13:00:27.887Z,22.80
2018-07-12T13:02:56.327Z,22.80
2018-07-12T13:05:24.728Z,22.90
2018-07-12T13:07:53.152Z,22.90
2018-07-12T13:10:21.543Z,23.00
2018-07-12T13:12:49.935Z,23.00
2018-07-12T13:15:18.346Z,22.90
2018-07-12T13:17:46.750Z,23.00
2018-07-12T13:20:15.179Z,23.00
2018-07-12T13:22:43.600Z,23.00
2018-07-12T13:25:12.008Z,23.00
2018-07-12T13:27:40.430Z,23.10
2018-07-12T13:30:08.890Z,23.00
2018-07-12T13:32:37.299Z,23.00
2018-07-12T13:37:33.843Z,23.10
2018-07-12T13:40:02.307Z,23.10
2018-07-12T13:42:30.715Z,23.20
2018-07-12T13:44:59.130Z,23.10
2018-07-12T13:47:27.539Z,23.20
2018-07-12T13:49:55.947Z,23.10
2018-07-12T13:52:24.383Z,23.10
2018-07-12T13:54:52.783Z,23.10
2018-07-12T13:57:21.210Z,23.10
2018-07-12T13:59:49.619Z,23.10
2018-07-12T14:02:18.035Z,23.10
2018-07-12T14:04:46.471Z,23.10
2018-07-12T14:07:14.879Z,23.10
2018-07-12T14:09:43.460Z,23.10
2018-07-12T14:12:11.853Z,23.10
2018-07-12T14:14:40.275Z,23.10
2018-07-12T14:17:08.702Z,23.10
2018-07-12T14:19:37.097Z,23.10
2018-07-12T14:22:05.575Z,23.20
2018-07-12T14:24:34.017Z,23.20
2018-07-12T14:29:30.562Z,23.20
2018-07-12T14:31:58.946Z,23.10
2018-07-12T14:34:27.550Z,23.20
2018-07-12T14:36:55.938Z,23.20
2018-07-12T14:39:24.371Z,23.30
2018-07-12T14:41:52.815Z,23.20
2018-07-12T14:44:21.219Z,23.30
2018-07-12T14:46:49.624Z,23.20
2018-07-12T14:49:18.048Z,23.30
2018-07-12T14:51:46.451Z,23.30
2018-07-12T14:54:15.341Z,23.30
2018-07-12T14:56:43.751Z,23.30
2018-07-12T14:59:12.170Z,23.30
2018-07-12T15:01:40.591Z,23.40
2018-07-12T15:04:09.213Z,23.30
2018-07-12T15:06:37.639Z,23.20
2018-07-12T15:09:07.419Z,23.20
2018-07-12T15:11:36.635Z,23.20
2018-07-12T15:14:05.075Z,23.20
2018-07-12T15:16:33.505Z,23.20
2018-07-12T15:19:02.051Z,23.20
2018-07-12T15:21:30.490Z,23.30
2018-07-12T15:23:59.063Z,23.30
2018-07-12T15:26:27.463Z,23.30
2018-07-12T15:28:55.858Z,23.40
2018-07-12T15:31:24.488Z,23.40
2018-07-12T15:33:52.896Z,23.40
2018-07-12T15:36:21.416Z,23.30
2018-07-12T15:38:50.010Z,23.30
2018-07-12T15:41:18.422Z,23.40
2018-07-12T15:43:46.841Z,23.40
2018-07-12T15:46:15.243Z,23.30
2018-07-12T15:48:43.663Z,23.30
2018-07-12T15:51:12.094Z,23.40
2018-07-12T15:53:40.555Z,23.40
2018-07-12T15:56:08.947Z,23.40
2018-07-12T15:58:37.347Z,23.40
2018-07-12T16:01:05.822Z,23.40
2018-07-12T16:03:34.249Z,23.40
2018-07-12T16:06:02.671Z,23.50
2018-07-12T16:08:31.127Z,23.40
2018-07-12T16:10:59.514Z,23.40
2018-07-12T16:13:27.979Z,23.40
2018-07-12T16:15:56.367Z,23.50
2018-07-12T16:18:24.787Z,23.50
2018-07-12T16:20:53.208Z,23.40
2018-07-12T16:23:21.624Z,23.40
2018-07-12T16:25:50.028Z,23.40
2018-07-12T16:28:18.571Z,23.40
2018-07-12T16:30:46.986Z,23.40
2018-07-12T16:35:43.666Z,23.50
2018-07-12T16:38:12.099Z,23.50
2018-07-12T16:40:40.515Z,23.60
2018-07-12T16:43:08.951Z,23.60
2018-07-12T16:45:37.379Z,23.60
2018-07-12T16:48:05.816Z,23.60
2018-07-12T16:50:34.227Z,23.60
2018-07-12T16:55:30.744Z,23.60
2018-07-12T16:57:59.171Z,23.60
2018-07-12T17:00:27.587Z,23.60
2018-07-12T17:02:56.110Z,23.60
2018-07-12T17:05:24.585Z,23.60
2018-07-12T17:07:53.124Z,23.60
2018-07-12T17:10:21.682Z,23.60
2018-07-12T17:12:50.146Z,23.60
2018-07-12T17:15:18.554Z,23.60
2018-07-12T17:17:46.970Z,23.60
2018-07-12T17:20:15.380Z,23.60
2018-07-12T17:22:43.803Z,23.60
2018-07-12T17:25:12.199Z,23.60
2018-07-12T17:27:40.622Z,23.60
2018-07-12T17:30:09.548Z,23.60
2018-07-12T17:32:37.979Z,23.60
2018-07-12T17:35:06.387Z,23.70
2018-07-12T17:37:34.938Z,23.60
2018-07-12T17:40:03.438Z,23.60
2018-07-12T17:42:31.864Z,23.60
2018-07-12T17:45:00.307Z,23.60
2018-07-12T17:47:28.828Z,23.60
2018-07-12T17:49:57.299Z,23.60
2018-07-12T17:52:25.726Z,23.60
2018-07-12T17:54:54.126Z,23.50
2018-07-12T17:57:22.558Z,23.50
2018-07-12T17:59:50.979Z,23.60
2018-07-12T18:02:19.377Z,23.60
2018-07-12T18:04:47.874Z,23.50
2018-07-12T18:07:16.278Z,23.50
2018-07-12T18:09:44.719Z,23.60
2018-07-12T18:12:13.124Z,23.60
2018-07-12T18:14:41.571Z,23.60
2018-07-12T18:17:10.147Z,23.60
2018-07-12T18:19:38.628Z,23.50
2018-07-12T18:22:07.051Z,23.50
2018-07-12T18:24:35.632Z,23.50
2018-07-12T18:27:04.152Z,23.50
2018-07-12T18:29:32.547Z,23.50
2018-07-12T18:32:01.133Z,23.50
2018-07-12T18:34:29.760Z,23.50
2018-07-12T18:37:02.658Z,23.50
2018-07-12T18:39:31.190Z,23.50
2018-07-12T18:41:59.755Z,23.50
2018-07-12T18:44:28.530Z,23.50
2018-07-12T18:46:58.130Z,23.50
2018-07-12T18:49:26.931Z,23.40
2018-07-12T18:51:55.490Z,23.40
2018-07-12T18:54:24.767Z,23.40
2018-07-12T18:56:53.361Z,23.40
2018-07-12T18:59:21.906Z,23.30
2018-07-12T19:01:50.564Z,23.20
2018-07-12T19:04:19.159Z,23.20
2018-07-12T19:06:47.922Z,23.20
2018-07-12T19:09:16.507Z,23.20
2018-07-12T19:11:45.141Z,23.20
2018-07-12T19:14:15.191Z,23.10
2018-07-12T19:16:45.800Z,23.10
2018-07-12T19:19:15.116Z,23.20
2018-07-12T19:21:44.320Z,23.20
2018-07-12T19:24:13.066Z,23.20
2018-07-12T19:26:42.213Z,23.10
2018-07-12T19:29:11.012Z,23.10
2018-07-12T19:31:39.730Z,23.10
2018-07-12T19:34:19.115Z,23.00
2018-07-12T19:36:47.730Z,23.00
2018-07-12T19:39:16.519Z,22.90
2018-07-12T19:41:45.282Z,22.80
2018-07-12T19:44:13.986Z,22.70
2018-07-12T19:46:42.614Z,22.70
2018-07-12T19:49:11.267Z,22.70
2018-07-12T19:51:39.959Z,22.70
2018-07-12T19:54:08.667Z,22.60
2018-07-12T19:56:37.228Z,22.60
2018-07-12T19:59:05.965Z,22.60
2018-07-12T20:01:34.607Z,22.50
2018-07-12T20:04:03.384Z,22.50
2018-07-12T20:06:32.883Z,22.50
2018-07-12T20:09:01.549Z,22.40
2018-07-12T20:11:30.149Z,22.40
2018-07-12T20:13:58.680Z,22.30
2018-07-12T20:16:31.072Z,22.30
2018-07-12T20:18:59.826Z,22.40
2018-07-12T20:21:28.384Z,22.30
2018-07-12T20:23:57.132Z,22.20
2018-07-12T20:26:25.724Z,22.10
2018-07-12T20:28:54.364Z,22.20
2018-07-12T20:31:23.075Z,22.20
2018-07-12T20:33:51.624Z,22.10
2018-07-12T20:36:20.213Z,22.10
2018-07-12T20:38:48.998Z,22.00
2018-07-12T20:41:17.599Z,22.00
2018-07-12T20:43:46.158Z,22.00
2018-07-12T20:46:14.824Z,22.00
2018-07-12T20:48:43.348Z,22.00
2018-07-12T20:51:11.930Z,21.90
2018-07-12T20:53:40.462Z,21.90
2018-07-12T20:56:09.089Z,21.90
2018-07-12T20:58:50.639Z,21.90
2018-07-12T21:01:19.183Z,21.90
2018-07-12T21:03:47.811Z,21.90
2018-07-12T21:06:16.422Z,21.80
2018-07-12T21:08:45.117Z,21.80
2018-07-12T21:11:13.785Z,21.70
2018-07-12T21:13:42.591Z,21.60
2018-07-12T21:16:11.179Z,21.60
2018-07-12T21:18:39.815Z,21.60
2018-07-12T21:21:08.553Z,21.60
2018-07-12T21:23:37.319Z,21.50
2018-07-12T21:26:06.158Z,21.50
2018-07-12T21:28:46.455Z,21.50
2018-07-12T21:31:15.052Z,21.40
2018-07-12T21:33:43.657Z,21.40
2018-07-12T21:36:12.247Z,21.40
2018-07-12T21:38:40.864Z,21.40
2018-07-12T21:41:09.554Z,21.40
2018-07-12T21:43:38.154Z,21.40
2018-07-12T21:46:06.858Z,21.30
2018-07-12T21:48:35.450Z,21.20
2018-07-12T21:51:04.015Z,21.20
2018-07-12T21:53:32.548Z,21.10
2018-07-12T21:56:01.115Z,21.20
2018-07-12T21:58:29.854Z,21.20
2018-07-12T22:00:58.439Z,21.30
2018-07-12T22:03:27.061Z,21.40
2018-07-12T22:05:55.807Z,21.50
2018-07-12T22:08:25.411Z,21.40
2018-07-12T22:10:55.275Z,21.50
2018-07-12T22:13:24.481Z,21.40
2018-07-12T22:16:04.834Z,21.30
2018-07-12T22:18:33.444Z,21.30
2018-07-12T22:21:02.265Z,21.20
2018-07-12T22:23:30.879Z,21.20
2018-07-12T22:25:59.536Z,21.20
2018-07-12T22:28:28.103Z,21.20
2018-07-12T22:30:56.802Z,21.20
2018-07-12T22:33:25.402Z,21.10
2018-07-12T22:35:53.969Z,21.10
2018-07-12T22:38:22.577Z,21.10
2018-07-12T22:40:51.343Z,21.10
2018-07-12T22:43:19.963Z,21.00
2018-07-12T22:45:48.478Z,21.00
2018-07-12T22:48:17.277Z,21.00
2018-07-12T22:50:45.691Z,21.10
2018-07-12T22:55:42.155Z,21.00
2018-07-12T22:58:10.551Z,20.90
2018-07-12T23:00:39.128Z,20.80
2018-07-12T23:03:07.527Z,20.80
2018-07-12T23:05:35.900Z,20.80
2018-07-12T23:08:04.327Z,20.90
2018-07-12T23:10:32.739Z,20.70
2018-07-12T23:13:01.152Z,20.70
2018-07-12T23:15:29.526Z,20.60
2018-07-12T23:17:57.910Z,20.60
2018-07-12T23:20:26.309Z,20.60
2018-07-12T23:22:54.710Z,20.60
2018-07-12T23:25:23.171Z,20.60
2018-07-12T23:27:51.535Z,20.60
2018-07-12T23:30:19.939Z,20.60
2018-07-12T23:32:48.319Z,20.70
2018-07-12T23:35:16.711Z,20.90
2018-07-12T23:37:45.119Z,20.90
2018-07-12T23:40:13.507Z,20.90
2018-07-12T23:42:41.900Z,20.90
2018-07-12T23:45:10.303Z,20.80
2018-07-12T23:47:38.899Z,20.70
2018-07-12T23:50:07.287Z,20.60
2018-07-12T23:52:35.687Z,20.50
2018-07-12T23:55:04.286Z,20.50
2018-07-12T23:57:32.678Z,20.50
